createdAt,value
2022-08-17T00:01:51.553Z,21.50
2022-08-17T00:04:21.455Z,21.50
2022-08-17T00:06:50.550Z,21.70
2022-08-17T00:09:19.534Z,21.70
2022-08-17T00:12:40.661Z,21.70
2022-08-17T00:14:37.933Z,21.70
2022-08-17T00:17:07.988Z,21.70
2022-08-17T00:19:36.029Z,21.70
2022-08-17T00:22:34.376Z,21.50
2022-08-17T00:24:54.844Z,21.20
2022-08-17T00:27:23.018Z,21.00
2022-08-17T00:29:51.992Z,20.90
2022-08-17T00:33:13.795Z,21.00
2022-08-17T00:35:12.399Z,21.10
2022-08-17T00:37:40.675Z,21.20
2022-08-17T00:40:11.067Z,21.20
2022-08-17T00:42:39.656Z,21.20
2022-08-17T00:45:09.942Z,21.30
2022-08-17T00:47:40.088Z,21.30
2022-08-17T00:50:10.805Z,21.30
2022-08-17T00:52:44.457Z,21.20
2022-08-17T00:55:13.123Z,21.20
2022-08-17T00:57:45.687Z,21.00
2022-08-17T01:00:18.021Z,20.80
2022-08-17T01:02:48.957Z,20.90
2022-08-17T01:05:21.775Z,21.00
2022-08-17T01:07:51.496Z,21.00
2022-08-17T01:10:57.102Z,20.90
2022-08-17T01:13:12.948Z,21.00
2022-08-17T01:15:46.245Z,21.00
2022-08-17T01:18:16.705Z,21.00
2022-08-17T01:20:49.793Z,21.00
2022-08-17T01:23:21.786Z,21.10
2022-08-17T01:25:51.955Z,21.10
2022-08-17T01:28:53.073Z,21.20
2022-08-17T01:31:10.098Z,21.00
2022-08-17T01:33:38.761Z,21.00
2022-08-17T01:36:08.783Z,21.10
2022-08-17T01:38:39.348Z,21.00
2022-08-17T01:41:11.251Z,21.00
2022-08-17T01:43:44.711Z,21.00
2022-08-17T01:46:18.208Z,21.00
2022-08-17T01:48:47.619Z,20.60
2022-08-17T01:51:16.525Z,20.60
2022-08-17T01:53:50.759Z,20.50
2022-08-17T01:56:21.310Z,20.10
2022-08-17T01:58:49.500Z,20.10
2022-08-17T02:01:19.778Z,20.00
2022-08-17T02:03:59.465Z,20.10
2022-08-17T02:06:45.167Z,19.90
2022-08-17T02:09:23.368Z,19.80
2022-08-17T02:11:54.422Z,19.70
2022-08-17T02:14:23.405Z,19.70
2022-08-17T02:16:51.878Z,19.70
2022-08-17T02:19:20.001Z,19.80
2022-08-17T02:21:50.845Z,20.00
2022-08-17T02:24:58.670Z,20.10
2022-08-17T02:27:12.190Z,20.30
2022-08-17T02:29:40.392Z,20.40
2022-08-17T02:32:20.851Z,20.50
2022-08-17T02:34:55.960Z,20.50
2022-08-17T02:37:24.160Z,20.20
2022-08-17T02:39:53.881Z,20.10
2022-08-17T02:42:27.761Z,20.10
2022-08-17T02:44:56.070Z,20.30
2022-08-17T02:47:24.662Z,20.50
2022-08-17T02:49:55.403Z,20.60
2022-08-17T02:52:43.508Z,20.70
2022-08-17T02:55:16.096Z,20.70
2022-08-17T02:57:44.627Z,20.70
2022-08-17T03:00:16.893Z,20.60
2022-08-17T03:02:46.132Z,20.50
2022-08-17T03:05:16.747Z,20.50
2022-08-17T03:07:44.897Z,20.50
2022-08-17T03:10:16.473Z,20.40
2022-08-17T03:12:45.915Z,20.20
2022-08-17T03:15:16.316Z,20.00
2022-08-17T03:17:45.084Z,20.00
2022-08-17T03:20:14.000Z,20.00
2022-08-17T03:22:53.462Z,19.70
2022-08-17T03:25:26.818Z,19.70
2022-08-17T03:27:56.700Z,20.00
2022-08-17T03:30:25.876Z,20.10
2022-08-17T03:33:00.020Z,20.20
2022-08-17T03:35:31.065Z,20.30
2022-08-17T03:38:01.308Z,20.40
2022-08-17T03:40:41.821Z,20.40
2022-08-17T03:43:22.345Z,20.30
2022-08-17T03:46:28.610Z,20.20
2022-08-17T03:49:13.751Z,20.00
2022-08-17T03:51:59.442Z,19.80
2022-08-17T03:54:44.971Z,19.90
2022-08-17T03:57:14.614Z,19.80
2022-08-17T03:59:42.808Z,19.70
2022-08-17T04:02:13.850Z,20.00
2022-08-17T04:04:41.989Z,20.00
2022-08-17T04:07:10.735Z,19.80
2022-08-17T04:09:38.864Z,19.80
2022-08-17T04:12:07.278Z,19.60
2022-08-17T04:14:51.976Z,19.60
2022-08-17T04:17:23.316Z,19.60
2022-08-17T04:19:51.403Z,19.70
2022-08-17T04:22:32.377Z,19.70
2022-08-17T04:25:09.737Z,19.70
2022-08-17T04:27:37.839Z,19.80
2022-08-17T04:30:08.562Z,19.90
2022-08-17T04:33:00.767Z,19.80
2022-08-17T04:35:36.554Z,19.80
2022-08-17T04:38:05.093Z,19.90
2022-08-17T04:40:50.614Z,19.90
2022-08-17T04:43:20.313Z,19.90
2022-08-17T04:45:56.268Z,19.90
2022-08-17T04:48:29.727Z,19.90
2022-08-17T04:51:04.937Z,20.00
2022-08-17T04:53:33.057Z,20.00
2022-08-17T04:56:01.139Z,20.10
2022-08-17T04:58:29.322Z,20.20
2022-08-17T05:00:58.832Z,20.30
2022-08-17T05:03:27.023Z,20.50
2022-08-17T05:05:55.172Z,20.40
2022-08-17T05:08:23.213Z,20.60
2022-08-17T05:10:52.141Z,20.60
2022-08-17T05:13:22.913Z,20.80
2022-08-17T05:15:55.349Z,20.90
2022-08-17T05:18:24.959Z,20.80
2022-08-17T05:20:53.528Z,20.90
2022-08-17T05:23:23.769Z,21.00
2022-08-17T05:25:54.657Z,21.10
2022-08-17T05:28:27.356Z,21.20
2022-08-17T05:30:58.215Z,21.40
2022-08-17T05:33:30.417Z,21.40
2022-08-17T05:36:00.122Z,21.40
2022-08-17T05:38:30.220Z,21.50
2022-08-17T05:40:59.806Z,21.50
2022-08-17T05:43:29.918Z,21.50
2022-08-17T05:46:03.994Z,21.60
2022-08-17T05:48:39.663Z,21.60
2022-08-17T05:51:33.185Z,21.70
2022-08-17T05:54:10.625Z,21.70
2022-08-17T05:56:58.782Z,21.80
2022-08-17T05:59:34.225Z,21.80
2022-08-17T06:02:07.713Z,21.90
2022-08-17T06:04:49.458Z,22.00
2022-08-17T06:07:22.151Z,22.00
2022-08-17T06:10:00.024Z,22.10
2022-08-17T06:12:41.119Z,22.00
2022-08-17T06:15:24.669Z,22.20
2022-08-17T06:17:57.013Z,22.30
2022-08-17T06:20:31.210Z,22.40
2022-08-17T06:23:05.240Z,22.50
2022-08-17T06:25:38.039Z,22.50
2022-08-17T06:28:13.982Z,22.60
2022-08-17T06:30:59.101Z,22.60
2022-08-17T06:33:34.429Z,22.70
2022-08-17T06:36:16.220Z,22.70
2022-08-17T06:38:53.340Z,22.80
2022-08-17T06:41:29.569Z,22.90
2022-08-17T06:44:10.921Z,22.90
2022-08-17T06:46:42.653Z,22.90
2022-08-17T06:49:19.867Z,22.90
2022-08-17T06:51:53.547Z,22.70
2022-08-17T06:54:29.866Z,22.80
2022-08-17T06:57:05.626Z,22.90
2022-08-17T06:59:54.814Z,23.00
2022-08-17T07:02:51.208Z,22.90
2022-08-17T07:05:25.053Z,23.00
2022-08-17T07:08:03.917Z,22.90
2022-08-17T07:10:47.798Z,22.90
2022-08-17T07:13:25.951Z,22.90
2022-08-17T07:16:00.864Z,22.90
2022-08-17T07:18:33.204Z,23.00
2022-08-17T07:21:14.150Z,23.10
2022-08-17T07:24:01.096Z,23.10
2022-08-17T07:26:29.737Z,23.10
2022-08-17T07:28:58.274Z,23.10
2022-08-17T07:31:30.520Z,23.10
2022-08-17T07:34:08.062Z,23.20
2022-08-17T07:36:36.224Z,23.20
2022-08-17T07:39:06.358Z,23.50
2022-08-17T07:41:57.810Z,23.70
2022-08-17T07:44:28.141Z,23.80
2022-08-17T07:47:14.046Z,23.80
2022-08-17T07:49:46.071Z,23.80
2022-08-17T07:52:50.501Z,23.90
2022-08-17T07:55:30.496Z,24.10
2022-08-17T07:58:00.251Z,24.10
2022-08-17T08:00:32.249Z,24.20
2022-08-17T08:03:27.212Z,24.50
2022-08-17T08:06:00.344Z,24.60
2022-08-17T08:08:43.667Z,24.60
2022-08-17T08:11:16.230Z,24.70
2022-08-17T08:13:46.106Z,24.60
2022-08-17T08:16:27.697Z,24.60
2022-08-17T08:18:58.668Z,24.60
2022-08-17T08:21:34.489Z,24.70
2022-08-17T08:24:30.773Z,24.90
2022-08-17T08:27:10.259Z,25.00
2022-08-17T08:29:46.574Z,25.10
2022-08-17T08:32:21.284Z,25.20
2022-08-17T08:35:02.920Z,25.20
2022-08-17T08:37:42.862Z,25.20
2022-08-17T08:40:25.423Z,25.40
2022-08-17T08:43:08.193Z,25.50
2022-08-17T08:45:44.702Z,25.60
2022-08-17T08:48:56.446Z,25.70
2022-08-17T08:51:27.746Z,25.80
2022-08-17T08:54:04.657Z,25.80
2022-08-17T08:56:39.524Z,25.80
2022-08-17T08:59:19.634Z,25.80
2022-08-17T09:01:58.013Z,25.80
2022-08-17T09:05:10.557Z,25.90
2022-08-17T09:07:39.791Z,25.90
2022-08-17T09:10:17.835Z,25.80
2022-08-17T09:12:52.023Z,25.90
2022-08-17T09:15:27.726Z,26.00
2022-08-17T09:18:36.455Z,26.10
2022-08-17T09:20:56.283Z,26.10
2022-08-17T09:23:33.665Z,26.30
2022-08-17T09:26:06.338Z,26.50
2022-08-17T09:28:36.580Z,26.50
2022-08-17T09:31:10.768Z,26.60
2022-08-17T09:33:46.757Z,26.50
2022-08-17T09:36:24.284Z,26.50
2022-08-17T09:38:59.154Z,26.60
2022-08-17T09:41:35.779Z,26.70
2022-08-17T09:44:23.124Z,26.60
2022-08-17T09:46:57.001Z,26.60
2022-08-17T09:49:31.934Z,27.00
2022-08-17T09:52:04.667Z,26.80
2022-08-17T09:54:39.012Z,26.70
2022-08-17T09:57:31.508Z,26.70
2022-08-17T10:00:17.026Z,26.60
2022-08-17T10:03:17.203Z,26.50
2022-08-17T10:05:52.350Z,26.50
2022-08-17T10:08:37.497Z,26.70
2022-08-17T10:11:22.435Z,26.80
2022-08-17T10:14:37.054Z,27.00
2022-08-17T10:17:04.500Z,27.10
2022-08-17T10:19:39.864Z,27.30
2022-08-17T10:22:38.177Z,27.20
2022-08-17T10:25:33.444Z,27.40
2022-08-17T10:28:21.008Z,27.50
2022-08-17T10:31:16.735Z,27.60
2022-08-17T10:33:56.690Z,27.60
2022-08-17T10:36:38.025Z,27.70
2022-08-17T10:39:15.761Z,27.60
2022-08-17T10:41:49.580Z,27.60
2022-08-17T10:44:38.120Z,27.70
2022-08-17T10:47:11.371Z,27.60
2022-08-17T10:49:47.796Z,27.70
2022-08-17T10:52:50.158Z,27.90
2022-08-17T10:55:20.501Z,27.80
2022-08-17T10:57:50.823Z,27.80
2022-08-17T11:01:12.555Z,27.70
2022-08-17T11:03:54.820Z,27.40
2022-08-17T11:06:32.848Z,27.70
2022-08-17T11:09:26.299Z,27.70
2022-08-17T11:12:26.171Z,27.80
2022-08-17T11:15:04.813Z,27.80
2022-08-17T11:18:12.532Z,27.60
2022-08-17T11:21:03.206Z,27.70
2022-08-17T11:23:58.075Z,28.10
2022-08-17T11:26:30.073Z,28.00
2022-08-17T11:29:05.186Z,28.00
2022-08-17T11:31:39.291Z,28.00
2022-08-17T11:34:18.516Z,28.00
2022-08-17T11:37:13.000Z,28.10
2022-08-17T11:40:10.647Z,28.10
2022-08-17T11:42:56.079Z,28.40
2022-08-17T11:45:57.134Z,28.30
2022-08-17T11:48:50.346Z,28.10
2022-08-17T11:51:34.683Z,28.00
2022-08-17T11:56:59.536Z,28.00
2022-08-17T11:59:59.555Z,28.40
2022-08-17T12:02:49.037Z,28.40
2022-08-17T12:05:36.299Z,28.50
2022-08-17T12:08:15.989Z,28.60
2022-08-17T12:11:01.213Z,28.70
2022-08-17T12:13:39.517Z,29.00
2022-08-17T12:16:14.831Z,29.30
2022-08-17T12:18:50.813Z,29.40
2022-08-17T12:21:45.097Z,29.30
2022-08-17T12:24:24.611Z,29.10
2022-08-17T12:26:54.733Z,29.00
2022-08-17T12:29:35.624Z,28.90
2022-08-17T12:32:16.697Z,28.70
2022-08-17T12:34:46.710Z,28.70
2022-08-17T12:37:18.630Z,28.40
2022-08-17T12:39:53.677Z,28.90
2022-08-17T12:42:29.323Z,29.20
2022-08-17T12:44:57.697Z,29.30
2022-08-17T12:47:30.077Z,29.40
2022-08-17T12:50:08.363Z,30.00
2022-08-17T12:53:01.655Z,30.30
2022-08-17T12:55:39.004Z,30.60
2022-08-17T12:58:14.487Z,30.70
2022-08-17T13:00:49.822Z,31.10
2022-08-17T13:03:22.260Z,31.40
2022-08-17T13:05:58.036Z,31.80
2022-08-17T13:08:31.127Z,32.10
2022-08-17T13:11:01.382Z,31.80
2022-08-17T13:13:32.350Z,32.30
2022-08-17T13:16:03.293Z,32.10
2022-08-17T13:18:42.822Z,32.50
2022-08-17T13:21:22.319Z,32.50
2022-08-17T13:23:59.268Z,32.90
2022-08-17T13:26:32.017Z,32.90
2022-08-17T13:29:01.340Z,33.30
2022-08-17T13:31:47.458Z,33.40
2022-08-17T13:34:38.718Z,33.30
2022-08-17T13:37:34.751Z,33.70
2022-08-17T13:40:21.208Z,34.00
2022-08-17T13:42:52.826Z,33.80
2022-08-17T13:45:43.943Z,33.60
2022-08-17T13:48:21.048Z,33.40
2022-08-17T13:51:32.183Z,32.50
2022-08-17T13:54:21.568Z,31.90
2022-08-17T13:57:17.856Z,31.90
2022-08-17T13:59:53.443Z,30.90
2022-08-17T14:02:27.621Z,30.50
2022-08-17T14:04:58.687Z,31.00
2022-08-17T14:07:36.870Z,31.30
2022-08-17T14:10:10.475Z,31.70
2022-08-17T14:12:40.768Z,31.90
2022-08-17T14:15:10.813Z,31.60
2022-08-17T14:17:39.774Z,31.40
2022-08-17T14:20:11.853Z,31.20
2022-08-17T14:22:45.063Z,31.20
2022-08-17T14:25:15.074Z,31.00
2022-08-17T14:27:52.765Z,31.20
2022-08-17T14:30:24.647Z,31.30
2022-08-17T14:32:53.825Z,31.10
2022-08-17T14:35:24.439Z,31.20
2022-08-17T14:37:54.205Z,31.30
2022-08-17T14:40:24.985Z,31.50
2022-08-17T14:42:55.179Z,31.50
2022-08-17T14:45:29.652Z,31.40
2022-08-17T14:48:02.765Z,31.20
2022-08-17T14:50:31.745Z,31.30
2022-08-17T14:53:03.856Z,31.10
2022-08-17T14:55:32.529Z,31.40
2022-08-17T14:58:00.768Z,31.40
2022-08-17T15:00:29.417Z,31.30
2022-08-17T15:03:00.149Z,31.70
2022-08-17T15:05:31.702Z,31.80
2022-08-17T15:08:02.175Z,32.90
2022-08-17T15:10:31.426Z,33.60
2022-08-17T15:13:00.558Z,34.40
2022-08-17T15:15:29.668Z,34.70
2022-08-17T15:17:58.247Z,35.30
2022-08-17T15:20:30.267Z,35.60
2022-08-17T15:22:59.504Z,35.20
2022-08-17T15:25:32.816Z,35.60
2022-08-17T15:28:02.034Z,35.60
2022-08-17T15:30:31.806Z,35.70
2022-08-17T15:33:01.868Z,35.70
2022-08-17T15:35:32.071Z,37.30
2022-08-17T15:38:06.505Z,37.60
2022-08-17T15:40:38.738Z,37.10
2022-08-17T15:43:07.534Z,37.50
2022-08-17T15:45:35.793Z,37.50
2022-08-17T15:48:04.481Z,37.40
2022-08-17T15:50:32.725Z,37.30
2022-08-17T15:53:02.508Z,36.20
2022-08-17T15:55:32.558Z,35.70
2022-08-17T15:58:02.422Z,35.70
2022-08-17T16:00:30.578Z,35.60
2022-08-17T16:03:45.086Z,35.20
2022-08-17T16:05:52.068Z,34.90
2022-08-17T16:08:21.460Z,34.80
2022-08-17T16:10:50.325Z,34.20
2022-08-17T16:13:20.582Z,34.70
2022-08-17T16:15:56.602Z,34.70
2022-08-17T16:18:31.040Z,34.70
2022-08-17T16:21:19.782Z,34.60
2022-08-17T16:23:49.276Z,34.70
2022-08-17T16:26:18.034Z,34.90
2022-08-17T16:28:47.881Z,34.10
2022-08-17T16:31:16.381Z,33.50
2022-08-17T16:34:15.975Z,33.20
2022-08-17T16:36:33.417Z,33.20
2022-08-17T16:39:01.568Z,33.40
2022-08-17T16:41:45.301Z,32.80
2022-08-17T16:44:16.132Z,32.30
2022-08-17T16:46:45.477Z,32.10
2022-08-17T16:49:24.417Z,32.10
2022-08-17T16:52:04.056Z,31.90
2022-08-17T16:54:32.630Z,31.50
2022-08-17T16:57:00.745Z,31.40
2022-08-17T16:59:40.883Z,31.10
2022-08-17T17:02:14.009Z,30.50
2022-08-17T17:04:49.137Z,30.30
2022-08-17T17:07:33.936Z,30.20
2022-08-17T17:10:05.997Z,30.00
2022-08-17T17:12:59.554Z,29.70
2022-08-17T17:15:29.829Z,29.50
2022-08-17T17:18:07.161Z,29.20
2022-08-17T17:20:41.506Z,29.10
2022-08-17T17:23:16.069Z,28.90
2022-08-17T17:25:57.628Z,28.70
2022-08-17T17:28:31.504Z,28.60
2022-08-17T17:31:04.589Z,28.40
2022-08-17T17:33:38.612Z,28.20
2022-08-17T17:36:14.004Z,28.20
2022-08-17T17:38:46.425Z,28.10
2022-08-17T17:41:25.804Z,27.90
2022-08-17T17:44:02.782Z,27.80
2022-08-17T17:46:38.013Z,27.60
2022-08-17T17:49:07.074Z,27.50
2022-08-17T17:51:58.146Z,27.40
2022-08-17T17:54:41.402Z,27.20
2022-08-17T17:57:17.747Z,27.10
2022-08-17T17:59:54.193Z,27.00
2022-08-17T18:02:51.274Z,26.90
2022-08-17T18:05:44.646Z,26.70
2022-08-17T18:08:31.954Z,26.60
2022-08-17T18:11:07.289Z,26.40
2022-08-17T18:13:44.175Z,26.40
2022-08-17T18:16:15.924Z,26.20
2022-08-17T18:18:48.225Z,26.10
2022-08-17T18:21:19.496Z,26.00
2022-08-17T18:23:53.758Z,25.90
2022-08-17T18:26:42.035Z,25.80
2022-08-17T18:29:37.583Z,25.60
2022-08-17T18:32:37.986Z,25.40
2022-08-17T18:35:30.173Z,25.40
2022-08-17T18:38:20.456Z,25.30
2022-08-17T18:41:00.362Z,25.20
2022-08-17T18:43:44.372Z,25.10
2022-08-17T18:46:29.439Z,25.10
2022-08-17T18:49:01.122Z,25.10
2022-08-17T18:51:40.492Z,25.00
2022-08-17T18:54:21.741Z,24.90
2022-08-17T18:56:52.164Z,24.90
2022-08-17T18:59:30.833Z,24.80
2022-08-17T19:02:15.993Z,24.80
2022-08-17T19:05:08.399Z,24.80
2022-08-17T19:07:40.433Z,24.70
2022-08-17T19:10:17.556Z,24.70
2022-08-17T19:12:51.366Z,24.70
2022-08-17T19:15:25.851Z,24.60
2022-08-17T19:17:59.423Z,24.60
2022-08-17T19:20:32.731Z,24.40
2022-08-17T19:23:22.299Z,24.40
2022-08-17T19:25:52.689Z,24.40
2022-08-17T19:28:24.972Z,24.20
2022-08-17T19:30:57.864Z,24.20
2022-08-17T19:33:27.246Z,24.20
2022-08-17T19:36:03.972Z,24.20
2022-08-17T19:38:43.128Z,24.20
2022-08-17T19:41:19.913Z,24.10
2022-08-17T19:43:58.077Z,24.10
2022-08-17T19:46:35.989Z,24.00
2022-08-17T19:49:14.667Z,24.00
2022-08-17T19:51:48.755Z,23.80
2022-08-17T19:54:27.163Z,23.80
2022-08-17T19:57:01.745Z,23.80
2022-08-17T19:59:49.055Z,23.80
2022-08-17T20:02:31.850Z,23.80
2022-08-17T20:05:03.981Z,23.80
2022-08-17T20:07:43.275Z,23.70
2022-08-17T20:10:19.838Z,23.50
2022-08-17T20:12:52.785Z,23.40
2022-08-17T20:15:28.351Z,23.40
2022-08-17T20:18:00.822Z,23.40
2022-08-17T20:20:34.866Z,23.50
2022-08-17T20:23:08.035Z,23.40
2022-08-17T20:25:46.242Z,23.40
2022-08-17T20:28:23.405Z,23.40
2022-08-17T20:30:52.245Z,23.40
2022-08-17T20:33:26.351Z,23.30
2022-08-17T20:36:18.196Z,23.30
2022-08-17T20:38:50.341Z,23.20
2022-08-17T20:41:22.514Z,23.30
2022-08-17T20:44:05.887Z,23.40
2022-08-17T20:47:09.021Z,23.50
2022-08-17T20:49:48.820Z,23.50
2022-08-17T20:52:38.516Z,23.40
2022-08-17T20:55:09.506Z,23.50
2022-08-17T20:57:48.977Z,23.40
2022-08-17T21:00:45.638Z,23.40
2022-08-17T21:03:50.981Z,23.40
2022-08-17T21:06:22.666Z,23.40
2022-08-17T21:08:54.453Z,23.40
2022-08-17T21:12:02.670Z,23.40
2022-08-17T21:14:41.898Z,23.40
2022-08-17T21:17:31.098Z,23.40
2022-08-17T21:20:11.475Z,23.40
2022-08-17T21:22:54.830Z,23.50
2022-08-17T21:25:53.133Z,23.40
2022-08-17T21:28:34.129Z,23.30
2022-08-17T21:31:09.177Z,23.40
2022-08-17T21:33:39.619Z,23.10
2022-08-17T21:36:26.954Z,22.90
2022-08-17T21:39:06.696Z,23.00
2022-08-17T21:41:45.471Z,23.10
2022-08-17T21:44:22.294Z,22.80
2022-08-17T21:46:52.949Z,22.70
2022-08-17T21:49:26.815Z,22.50
2022-08-17T21:51:56.915Z,22.60
2022-08-17T21:54:31.732Z,22.60
2022-08-17T21:57:02.338Z,22.30
2022-08-17T21:59:35.717Z,22.30
2022-08-17T22:02:06.148Z,22.50
2022-08-17T22:04:37.781Z,22.50
2022-08-17T22:07:08.791Z,22.30
2022-08-17T22:09:43.304Z,22.40
2022-08-17T22:12:13.877Z,22.10
2022-08-17T22:14:52.979Z,22.10
2022-08-17T22:17:24.787Z,22.30
2022-08-17T22:19:56.432Z,21.90
2022-08-17T22:22:34.799Z,21.70
2022-08-17T22:25:05.206Z,21.70
2022-08-17T22:27:48.979Z,21.80
2022-08-17T22:30:59.537Z,21.70
2022-08-17T22:33:37.909Z,21.90
2022-08-17T22:36:22.830Z,21.80
2022-08-17T22:38:52.479Z,21.90
2022-08-17T22:41:34.441Z,22.10
2022-08-17T22:44:20.719Z,22.20
2022-08-17T22:47:01.245Z,22.20
2022-08-17T22:49:33.744Z,22.00
2022-08-17T22:52:11.077Z,21.90
2022-08-17T22:54:56.768Z,21.80
2022-08-17T22:57:43.396Z,21.90
2022-08-17T23:00:31.538Z,21.80
2022-08-17T23:03:14.692Z,21.80
2022-08-17T23:05:46.413Z,21.80
2022-08-17T23:08:21.332Z,21.70
2022-08-17T23:10:50.313Z,21.60
2022-08-17T23:13:18.520Z,21.70
2022-08-17T23:15:48.226Z,21.50
2022-08-17T23:18:18.132Z,21.40
2022-08-17T23:20:46.763Z,21.40
2022-08-17T23:23:15.951Z,21.60
2022-08-17T23:25:46.562Z,21.30
2022-08-17T23:28:14.782Z,21.40
2022-08-17T23:30:46.658Z,21.60
2022-08-17T23:33:27.438Z,21.80
2022-08-17T23:35:55.525Z,21.70
2022-08-17T23:38:25.482Z,21.70
2022-08-17T23:40:53.778Z,21.40
2022-08-17T23:43:24.129Z,21.00
2022-08-17T23:45:55.085Z,21.20
2022-08-17T23:48:32.666Z,21.20
2022-08-17T23:51:08.748Z,21.00
2022-08-17T23:53:37.813Z,20.80
2022-08-17T23:56:09.217Z,20.50
2022-08-17T23:58:39.544Z,20.50
